Terminal Aerodrome Forecast
Issued by NWS

Home | Current Version | Previous Version | Text Only | Print | Product List | Glossary On
Versions: 1 2 3 4 5 6 7 8 9 10 11 12 13 14 15 16 17 18 19 20
000
FTAK31 PAJN 011400 AAA
TAFAWG
TAF AMD
PAWG 011456Z 0115/0212 10011G18KT P6SM SCT060 BKN150 WS020/06025KT
     FM012000 08012G20KT P6SM VCSH BKN060 OVC150 WS020/06025KT
     FM020700 08011G19KT P6SM BKN080 BKN100
      AMD LTD TO CLD VIS AND WIND 0112/0115=

USA.gov is the U.S. government's official web portal to all federal, state and local government web resources and services.